UAE75T YBBN-OMDB
Flight info
| Callsign | UAE75T |
|---|---|
| Flight time | N/A |
| Altitude | 28000 |
| Route | WACKO V250 UNVAT DCT 2456S14730E 23S143E/N0500F300 22S141E 21S139E 19S136E 18S134E 17S132E 16S130E DCT SUNPO DCT ONOXA/N0505F320 G326 BLI M766 OBMAT/N0496F340 M766 KAT P570 TVM V27 RUVAN V28 DOTAT P570 POMAN/N0488F360 P570 ITURA M762 VAXAS/N0412F240 M762 MIVEK P574 IMPED |
| Aircraft | B77W/H-SDE1E2E3FGHIJ2J3J4J5M1RWXY/LB1D1 |
Departure
| Time | 2026-04-29 07:11 |
|---|---|
| Airport | Brisbane International Airport (YBBN) |
Arrival
| Time | N/A |
|---|---|
| Airport | Dubai International Airport (OMDB) |
| Time | Latitude | Longitude | Altitude | Speed | Heading |
|---|---|---|---|---|---|
| 2026-04-29 06:39 | -27.40281 | 153.11168 | 23 ft | 0 kts | 297° |
| 2026-04-29 06:53 | -27.40283 | 153.11172 | 22 ft | 2 kts | 297° |
| 2026-04-29 06:53 | -27.40290 | 153.11187 | 25 ft | 0 kts | 297° |
| 2026-04-29 06:53 | -27.40284 | 153.11176 | 25 ft | 2 kts | 297° |
| 2026-04-29 06:54 | -27.40283 | 153.11172 | 22 ft | 0 kts | 297° |
| 2026-04-29 06:54 | -27.40288 | 153.11186 | 25 ft | 2 kts | 275° |
| 2026-04-29 06:54 | -27.40288 | 153.11205 | 25 ft | 2 kts | 260° |
| 2026-04-29 06:55 | -27.40284 | 153.11222 | 27 ft | 2 kts | 252° |
| 2026-04-29 06:55 | -27.40279 | 153.11240 | 27 ft | 2 kts | 252° |
| 2026-04-29 06:55 | -27.40274 | 153.11257 | 26 ft | 2 kts | 252° |
| 2026-04-29 06:55 | -27.40269 | 153.11274 | 26 ft | 2 kts | 238° |
| 2026-04-29 06:56 | -27.40252 | 153.11291 | 27 ft | 6 kts | 212° |
| 2026-04-29 06:56 | -27.40218 | 153.11315 | 27 ft | 6 kts | 212° |
| 2026-04-29 06:56 | -27.40184 | 153.11338 | 27 ft | 6 kts | 225° |
| 2026-04-29 06:56 | -27.40155 | 153.11371 | 26 ft | 6 kts | 222° |
| 2026-04-29 06:57 | -27.40140 | 153.11387 | 26 ft | 0 kts | 222° |
| 2026-04-29 06:59 | -27.40173 | 153.11387 | 26 ft | 8 kts | 150° |
| 2026-04-29 07:00 | -27.40205 | 153.11442 | 25 ft | 9 kts | 110° |
| 2026-04-29 07:00 | -27.40185 | 153.11502 | 26 ft | 9 kts | 41° |
| 2026-04-29 07:00 | -27.40133 | 153.11537 | 23 ft | 9 kts | 25° |
| 2026-04-29 07:00 | -27.40080 | 153.11569 | 24 ft | 9 kts | 32° |
| 2026-04-29 07:01 | -27.40020 | 153.11605 | 26 ft | 12 kts | 28° |
| 2026-04-29 07:01 | -27.39933 | 153.11655 | 25 ft | 16 kts | 26° |
| 2026-04-29 07:01 | -27.39827 | 153.11713 | 26 ft | 17 kts | 26° |
| 2026-04-29 07:01 | -27.39720 | 153.11775 | 25 ft | 17 kts | 29° |
| 2026-04-29 07:02 | -27.39614 | 153.11839 | 24 ft | 17 kts | 26° |
| 2026-04-29 07:02 | -27.39506 | 153.11898 | 26 ft | 17 kts | 26° |
| 2026-04-29 07:02 | -27.39400 | 153.11962 | 24 ft | 17 kts | 31° |
| 2026-04-29 07:02 | -27.39294 | 153.12025 | 26 ft | 17 kts | 25° |
| 2026-04-29 07:03 | -27.39186 | 153.12084 | 23 ft | 17 kts | 27° |
| 2026-04-29 07:03 | -27.39079 | 153.12145 | 26 ft | 17 kts | 27° |
| 2026-04-29 07:03 | -27.38972 | 153.12207 | 25 ft | 17 kts | 27° |
| 2026-04-29 07:03 | -27.38865 | 153.12267 | 24 ft | 17 kts | 28° |
| 2026-04-29 07:04 | -27.38758 | 153.12327 | 24 ft | 17 kts | 26° |
| 2026-04-29 07:04 | -27.38634 | 153.12398 | 25 ft | 24 kts | 27° |
| 2026-04-29 07:04 | -27.38487 | 153.12483 | 27 ft | 24 kts | 27° |
| 2026-04-29 07:04 | -27.38339 | 153.12568 | 25 ft | 24 kts | 27° |
| 2026-04-29 07:05 | -27.38191 | 153.12653 | 23 ft | 24 kts | 27° |
| 2026-04-29 07:05 | -27.38063 | 153.12727 | 24 ft | 16 kts | 27° |
| 2026-04-29 07:05 | -27.37960 | 153.12757 | 23 ft | 16 kts | 344° |
| 2026-04-29 07:05 | -27.37891 | 153.12662 | 23 ft | 16 kts | 297° |
| 2026-04-29 07:06 | -27.37841 | 153.12546 | 24 ft | 18 kts | 296° |
| 2026-04-29 07:06 | -27.37770 | 153.12381 | 25 ft | 31 kts | 296° |
| 2026-04-29 07:06 | -27.37667 | 153.12153 | 25 ft | 32 kts | 297° |
| 2026-04-29 07:06 | -27.37580 | 153.11961 | 24 ft | 27 kts | 297° |
| 2026-04-29 07:07 | -27.37495 | 153.11772 | 26 ft | 27 kts | 298° |
| 2026-04-29 07:07 | -27.37395 | 153.11595 | 27 ft | 27 kts | 327° |
| 2026-04-29 07:07 | -27.37220 | 153.11625 | 26 ft | 27 kts | 30° |
| 2026-04-29 07:07 | -27.37053 | 153.11723 | 23 ft | 27 kts | 27° |
| 2026-04-29 07:08 | -27.36888 | 153.11820 | 25 ft | 27 kts | 27° |
| 2026-04-29 07:08 | -27.36720 | 153.11917 | 24 ft | 27 kts | 26° |
| 2026-04-29 07:08 | -27.36551 | 153.12010 | 26 ft | 27 kts | 26° |
| 2026-04-29 07:08 | -27.36381 | 153.12103 | 26 ft | 27 kts | 26° |
| 2026-04-29 07:09 | -27.36216 | 153.12205 | 25 ft | 27 kts | 29° |
| 2026-04-29 07:09 | -27.36053 | 153.12300 | 25 ft | 18 kts | 25° |
| 2026-04-29 07:09 | -27.35991 | 153.12328 | 25 ft | 10 kts | 10° |
| 2026-04-29 07:09 | -27.35926 | 153.12317 | 24 ft | 10 kts | 337° |
| 2026-04-29 07:10 | -27.35872 | 153.12275 | 27 ft | 10 kts | 323° |
| 2026-04-29 07:10 | -27.35821 | 153.12227 | 26 ft | 10 kts | 313° |
| 2026-04-29 07:10 | -27.35789 | 153.12162 | 29 ft | 10 kts | 287° |
| 2026-04-29 07:10 | -27.35823 | 153.12105 | 31 ft | 10 kts | 211° |
| 2026-04-29 07:11 | -27.36009 | 153.12000 | 26 ft | 62 kts | 207° |
| 2026-04-29 07:11 | -27.36623 | 153.11649 | 24 ft | 135 kts | 206° |
| 2026-04-29 07:11 | -27.37670 | 153.11080 | 28 ft | 198 kts | 200° |
| 2026-04-29 07:11 | -27.38910 | 153.10328 | 652 ft | 207 kts | 206° |
| 2026-04-29 07:12 | -27.40199 | 153.09580 | 1452 ft | 217 kts | 202° |
| 2026-04-29 07:12 | -27.41594 | 153.08792 | 1715 ft | 232 kts | 202° |
| 2026-04-29 07:12 | -27.43036 | 153.07973 | 2058 ft | 240 kts | 202° |
| 2026-04-29 07:12 | -27.44542 | 153.07113 | 2504 ft | 244 kts | 202° |
| 2026-04-29 07:13 | -27.46058 | 153.06245 | 3040 ft | 246 kts | 201° |
| 2026-04-29 07:13 | -27.47585 | 153.05335 | 3541 ft | 251 kts | 211° |
| 2026-04-29 07:13 | -27.48752 | 153.03838 | 4037 ft | 264 kts | 241° |
| 2026-04-29 07:13 | -27.49195 | 153.01813 | 4495 ft | 273 kts | 267° |
| 2026-04-29 07:14 | -27.48966 | 152.99708 | 4860 ft | 281 kts | 279° |
| 2026-04-29 07:14 | -27.48584 | 152.97525 | 5286 ft | 287 kts | 278° |
| 2026-04-29 07:14 | -27.48209 | 152.95340 | 5863 ft | 288 kts | 278° |
| 2026-04-29 07:14 | -27.47754 | 152.93149 | 6325 ft | 292 kts | 292° |
| 2026-04-29 07:15 | -27.46530 | 152.91291 | 6487 ft | 304 kts | 326° |
| 2026-04-29 07:15 | -27.44677 | 152.90133 | 6814 ft | 308 kts | 336° |
| 2026-04-29 07:15 | -27.42746 | 152.89058 | 7349 ft | 310 kts | 336° |
| 2026-04-29 07:15 | -27.40815 | 152.87975 | 8006 ft | 310 kts | 335° |
| 2026-04-29 07:16 | -27.38877 | 152.86884 | 8569 ft | 313 kts | 335° |
| 2026-04-29 07:16 | -27.36930 | 152.85785 | 9161 ft | 314 kts | 335° |
| 2026-04-29 07:16 | -27.34972 | 152.84678 | 9727 ft | 316 kts | 335° |
| 2026-04-29 07:16 | -27.33023 | 152.83574 | 10236 ft | 320 kts | 335° |
| 2026-04-29 07:17 | -27.30990 | 152.82422 | 10431 ft | 336 kts | 335° |
| 2026-04-29 07:17 | -27.28843 | 152.81204 | 10574 ft | 354 kts | 335° |
| 2026-04-29 07:17 | -27.26588 | 152.79926 | 10696 ft | 372 kts | 335° |
| 2026-04-29 07:17 | -27.24242 | 152.78595 | 11099 ft | 381 kts | 334° |
| 2026-04-29 07:18 | -27.21873 | 152.77192 | 11557 ft | 389 kts | 333° |
| 2026-04-29 07:18 | -27.19554 | 152.75637 | 12071 ft | 390 kts | 321° |
| 2026-04-29 07:18 | -27.17760 | 152.73330 | 12481 ft | 397 kts | 299° |
| 2026-04-29 07:18 | -27.16506 | 152.70563 | 12945 ft | 401 kts | 296° |
| 2026-04-29 07:19 | -27.15252 | 152.67792 | 13454 ft | 406 kts | 296° |
| 2026-04-29 07:19 | -27.13957 | 152.64988 | 14240 ft | 403 kts | 297° |
| 2026-04-29 07:19 | -27.12659 | 152.62201 | 14825 ft | 406 kts | 297° |
| 2026-04-29 07:19 | -27.11344 | 152.59394 | 15455 ft | 406 kts | 297° |
| 2026-04-29 07:20 | -27.10023 | 152.56582 | 15946 ft | 412 kts | 297° |
| 2026-04-29 07:20 | -27.08677 | 152.53717 | 16389 ft | 417 kts | 297° |
| 2026-04-29 07:20 | -27.07318 | 152.50827 | 16923 ft | 420 kts | 297° |
| 2026-04-29 07:20 | -27.05948 | 152.47917 | 17408 ft | 424 kts | 297° |
| 2026-04-29 07:21 | -27.04561 | 152.44977 | 17826 ft | 430 kts | 298° |
| 2026-04-29 07:21 | -27.03168 | 152.42029 | 18300 ft | 434 kts | 298° |
| 2026-04-29 07:21 | -27.01750 | 152.39030 | 18801 ft | 437 kts | 298° |
| 2026-04-29 07:21 | -27.00328 | 152.36025 | 19377 ft | 436 kts | 297° |
| 2026-04-29 07:22 | -26.98908 | 152.33027 | 19938 ft | 436 kts | 297° |
| 2026-04-29 07:22 | -26.97479 | 152.30010 | 20341 ft | 441 kts | 297° |
| 2026-04-29 07:22 | -26.96040 | 152.26974 | 20855 ft | 441 kts | 297° |
| 2026-04-29 07:22 | -26.94591 | 152.23918 | 21150 ft | 448 kts | 297° |
| 2026-04-29 07:23 | -26.93142 | 152.20863 | 21561 ft | 451 kts | 297° |
| 2026-04-29 07:23 | -26.91666 | 152.17755 | 22023 ft | 452 kts | 297° |
| 2026-04-29 07:23 | -26.90182 | 152.14634 | 22455 ft | 456 kts | 297° |
| 2026-04-29 07:23 | -26.88689 | 152.11494 | 22870 ft | 458 kts | 297° |
| 2026-04-29 07:24 | -26.87189 | 152.08342 | 23306 ft | 460 kts | 296° |
| 2026-04-29 07:24 | -26.85677 | 152.05167 | 23671 ft | 464 kts | 296° |
| 2026-04-29 07:24 | -26.84153 | 152.01967 | 23992 ft | 467 kts | 296° |
| 2026-04-29 07:24 | -26.82648 | 151.98810 | 24318 ft | 469 kts | 296° |
| 2026-04-29 07:25 | -26.81108 | 151.95584 | 24673 ft | 471 kts | 296° |
| 2026-04-29 07:25 | -26.79560 | 151.92346 | 25006 ft | 473 kts | 295° |
| 2026-04-29 07:25 | -26.78018 | 151.89135 | 25268 ft | 476 kts | 295° |
| 2026-04-29 07:25 | -26.76446 | 151.85863 | 25558 ft | 479 kts | 295° |
| 2026-04-29 07:26 | -26.74866 | 151.82580 | 25894 ft | 480 kts | 295° |
| 2026-04-29 07:26 | -26.73279 | 151.79284 | 26235 ft | 481 kts | 295° |
| 2026-04-29 07:26 | -26.71688 | 151.75982 | 26542 ft | 483 kts | 295° |
| 2026-04-29 07:26 | -26.70092 | 151.72671 | 26849 ft | 485 kts | 294° |
| 2026-04-29 07:27 | -26.68488 | 151.69344 | 27138 ft | 487 kts | 294° |
| 2026-04-29 07:27 | -26.66879 | 151.66008 | 27419 ft | 489 kts | 294° |
| 2026-04-29 07:27 | -26.65284 | 151.62705 | 27681 ft | 490 kts | 294° |
| 2026-04-29 07:27 | -26.63662 | 151.59350 | 28010 ft | 491 kts | 294° |
| 2026-04-29 07:28 | -26.62036 | 151.55989 | 28223 ft | 494 kts | 294° |
| 2026-04-29 07:28 | -26.58736 | 151.49169 | 28279 ft | 503 kts | 294° |
| 2026-04-29 07:29 | -26.55402 | 151.42295 | 28245 ft | 503 kts | 294° |
| 2026-04-29 07:29 | -26.52072 | 151.35445 | 28271 ft | 501 kts | 294° |
| 2026-04-29 07:30 | -26.48774 | 151.28667 | 28254 ft | 499 kts | 294° |
| 2026-04-29 07:30 | -26.45460 | 151.21860 | 28258 ft | 498 kts | 294° |
| 2026-04-29 07:31 | -26.40493 | 151.11676 | 28257 ft | 498 kts | 294° |
| 2026-04-29 07:31 | -26.37208 | 151.04928 | 28254 ft | 499 kts | 294° |
| 2026-04-29 07:32 | -26.33932 | 150.98207 | 28250 ft | 498 kts | 295° |
| 2026-04-29 07:32 | -26.30626 | 150.91435 | 28251 ft | 497 kts | 295° |
| 2026-04-29 07:33 | -26.27321 | 150.84675 | 28248 ft | 497 kts | 295° |
| 2026-04-29 07:33 | -26.24014 | 150.77922 | 28254 ft | 496 kts | 295° |
| 2026-04-29 07:34 | -26.20729 | 150.71225 | 28243 ft | 496 kts | 295° |
| 2026-04-29 07:34 | -26.17422 | 150.64493 | 28246 ft | 495 kts | 295° |
| 2026-04-29 07:35 | -26.14115 | 150.57771 | 28244 ft | 495 kts | 295° |
| 2026-04-29 07:35 | -26.10807 | 150.51057 | 28245 ft | 495 kts | 295° |
| 2026-04-29 07:36 | -26.07518 | 150.44392 | 28232 ft | 495 kts | 295° |
| 2026-04-29 07:36 | -26.04205 | 150.37687 | 28237 ft | 494 kts | 295° |
| 2026-04-29 07:37 | -26.00895 | 150.30998 | 28234 ft | 494 kts | 295° |
| 2026-04-29 07:37 | -25.97582 | 150.24315 | 28240 ft | 494 kts | 295° |
| 2026-04-29 07:38 | -25.94288 | 150.17679 | 28233 ft | 494 kts | 295° |
| 2026-04-29 07:38 | -25.90975 | 150.11014 | 28231 ft | 492 kts | 296° |
| 2026-04-29 07:39 | -25.87665 | 150.04366 | 28241 ft | 491 kts | 296° |
| 2026-04-29 07:39 | -25.84405 | 149.97824 | 28242 ft | 490 kts | 296° |
| 2026-04-29 07:40 | -25.81125 | 149.91249 | 28230 ft | 490 kts | 295° |
| 2026-04-29 07:40 | -25.78364 | 149.84387 | 28239 ft | 485 kts | 288° |
| 2026-04-29 07:41 | -25.75947 | 149.77403 | 28234 ft | 485 kts | 288° |
| 2026-04-29 07:41 | -25.73515 | 149.70429 | 28240 ft | 485 kts | 288° |
| 2026-04-29 07:42 | -25.71060 | 149.63473 | 28240 ft | 485 kts | 288° |
| 2026-04-29 07:42 | -25.68607 | 149.56565 | 28244 ft | 484 kts | 288° |
| 2026-04-29 07:43 | -25.66138 | 149.49627 | 28241 ft | 484 kts | 288° |
| 2026-04-29 07:43 | -25.63664 | 149.42687 | 28248 ft | 484 kts | 288° |
| 2026-04-29 07:44 | -25.61187 | 149.35748 | 28244 ft | 484 kts | 289° |
| 2026-04-29 07:44 | -25.58726 | 149.28864 | 28245 ft | 484 kts | 289° |
| 2026-04-29 07:45 | -25.56245 | 149.21934 | 28250 ft | 484 kts | 289° |
| 2026-04-29 07:45 | -25.53759 | 149.15004 | 28245 ft | 484 kts | 289° |
| 2026-04-29 07:46 | -25.51269 | 149.08078 | 28245 ft | 484 kts | 289° |
| 2026-04-29 07:46 | -25.48793 | 149.01199 | 28236 ft | 484 kts | 289° |
| 2026-04-29 07:47 | -25.46331 | 148.94369 | 28250 ft | 484 kts | 289° |
| 2026-04-29 07:47 | -25.43832 | 148.87452 | 28246 ft | 484 kts | 289° |
| 2026-04-29 07:48 | -25.41330 | 148.80539 | 28240 ft | 484 kts | 289° |
| 2026-04-29 07:48 | -25.38827 | 148.73630 | 28237 ft | 484 kts | 289° |
| 2026-04-29 07:49 | -25.36333 | 148.66763 | 28249 ft | 485 kts | 289° |
| 2026-04-29 07:49 | -25.33817 | 148.59844 | 28243 ft | 485 kts | 289° |
| 2026-04-29 07:50 | -25.31295 | 148.52923 | 28244 ft | 485 kts | 289° |
| 2026-04-29 07:50 | -25.28770 | 148.46002 | 28228 ft | 486 kts | 289° |
| 2026-04-29 07:51 | -25.26241 | 148.39083 | 28244 ft | 486 kts | 289° |
| 2026-04-29 07:51 | -25.23725 | 148.32211 | 28235 ft | 486 kts | 289° |
| 2026-04-29 07:52 | -25.21187 | 148.25292 | 28245 ft | 486 kts | 289° |
| 2026-04-29 07:52 | -25.18646 | 148.18377 | 28232 ft | 486 kts | 290° |
| 2026-04-29 07:53 | -25.16106 | 148.11472 | 28235 ft | 485 kts | 290° |
| 2026-04-29 07:53 | -25.13580 | 148.04620 | 28240 ft | 485 kts | 290° |
| 2026-04-29 07:54 | -25.11060 | 147.97796 | 28238 ft | 485 kts | 290° |
| 2026-04-29 07:54 | -25.08514 | 147.90911 | 28227 ft | 485 kts | 290° |
| 2026-04-29 07:55 | -25.05963 | 147.84025 | 28236 ft | 485 kts | 290° |
| 2026-04-29 07:55 | -25.03423 | 147.77179 | 28230 ft | 486 kts | 290° |
| 2026-04-29 07:56 | -25.00859 | 147.70279 | 28225 ft | 487 kts | 290° |
| 2026-04-29 07:56 | -24.98290 | 147.63378 | 28213 ft | 487 kts | 290° |
| 2026-04-29 07:57 | -24.95717 | 147.56474 | 28212 ft | 487 kts | 290° |
| 2026-04-29 07:57 | -24.93140 | 147.49575 | 28213 ft | 487 kts | 290° |
| 2026-04-29 07:58 | -24.90432 | 147.42784 | 28210 ft | 487 kts | 292° |
| 2026-04-29 07:58 | -24.87609 | 147.36004 | 28198 ft | 487 kts | 292° |
| 2026-04-29 07:59 | -24.84794 | 147.29226 | 28205 ft | 486 kts | 292° |
| 2026-04-29 07:59 | -24.82000 | 147.22449 | 28212 ft | 486 kts | 292° |
| 2026-04-29 08:00 | -24.79212 | 147.15669 | 28211 ft | 486 kts | 292° |
| 2026-04-29 08:00 | -24.76440 | 147.08938 | 28200 ft | 486 kts | 292° |
| 2026-04-29 08:01 | -24.73647 | 147.02165 | 28209 ft | 486 kts | 292° |
| 2026-04-29 08:01 | -24.70877 | 146.95462 | 28207 ft | 487 kts | 292° |
| 2026-04-29 08:02 | -24.68071 | 146.88684 | 28213 ft | 487 kts | 292° |
| 2026-04-29 08:02 | -24.65279 | 146.81950 | 28206 ft | 487 kts | 292° |
| 2026-04-29 08:03 | -24.62468 | 146.75179 | 28211 ft | 487 kts | 292° |
| 2026-04-29 08:03 | -24.59655 | 146.68416 | 28208 ft | 486 kts | 292° |
| 2026-04-29 08:04 | -24.56842 | 146.61661 | 28210 ft | 486 kts | 293° |
| 2026-04-29 08:04 | -24.54025 | 146.54907 | 28204 ft | 486 kts | 293° |
| 2026-04-29 08:05 | -24.51228 | 146.48211 | 28203 ft | 486 kts | 293° |
| 2026-04-29 08:05 | -24.48409 | 146.41473 | 28196 ft | 485 kts | 293° |
| 2026-04-29 08:06 | -24.45591 | 146.34747 | 28205 ft | 485 kts | 293° |
| 2026-04-29 08:06 | -24.42772 | 146.28030 | 28198 ft | 484 kts | 293° |
| 2026-04-29 08:07 | -24.39953 | 146.21322 | 28204 ft | 484 kts | 293° |
| 2026-04-29 08:07 | -24.37152 | 146.14665 | 28203 ft | 484 kts | 293° |
| 2026-04-29 08:08 | -24.34330 | 146.07970 | 28195 ft | 484 kts | 293° |
| 2026-04-29 08:08 | -24.31506 | 146.01280 | 28199 ft | 483 kts | 293° |
| 2026-04-29 08:09 | -24.28706 | 145.94657 | 28192 ft | 483 kts | 293° |
| 2026-04-29 08:09 | -24.25897 | 145.88023 | 28192 ft | 483 kts | 293° |
| 2026-04-29 08:10 | -24.23069 | 145.81352 | 28192 ft | 483 kts | 293° |
| 2026-04-29 08:10 | -24.20239 | 145.74687 | 28186 ft | 482 kts | 293° |
| 2026-04-29 08:11 | -24.17412 | 145.68039 | 28187 ft | 481 kts | 293° |
| 2026-04-29 08:11 | -24.14586 | 145.61403 | 28184 ft | 481 kts | 293° |
| 2026-04-29 08:12 | -24.11776 | 145.54814 | 28185 ft | 480 kts | 293° |
| 2026-04-29 08:12 | -24.08947 | 145.48191 | 28184 ft | 480 kts | 293° |
| 2026-04-29 08:13 | -24.06115 | 145.41570 | 28182 ft | 480 kts | 293° |
| 2026-04-29 08:13 | -24.03281 | 145.34952 | 28179 ft | 481 kts | 293° |
| 2026-04-29 08:14 | -24.00458 | 145.28372 | 28179 ft | 481 kts | 294° |
| 2026-04-29 08:14 | -23.97621 | 145.21767 | 28179 ft | 481 kts | 293° |
| 2026-04-29 08:15 | -23.94773 | 145.15147 | 28181 ft | 481 kts | 293° |
| 2026-04-29 08:15 | -23.91920 | 145.08525 | 28180 ft | 482 kts | 294° |
| 2026-04-29 08:16 | -23.89084 | 145.01949 | 28176 ft | 482 kts | 294° |
| 2026-04-29 08:16 | -23.86258 | 144.95410 | 28176 ft | 482 kts | 293° |
| 2026-04-29 08:17 | -23.83396 | 144.88793 | 28174 ft | 482 kts | 294° |
| 2026-04-29 08:17 | -23.80530 | 144.82179 | 28172 ft | 482 kts | 293° |
| 2026-04-29 08:18 | -23.77662 | 144.75569 | 28178 ft | 482 kts | 293° |
| 2026-04-29 08:18 | -23.74810 | 144.69005 | 28171 ft | 482 kts | 293° |
| 2026-04-29 08:19 | -23.71933 | 144.62392 | 28171 ft | 482 kts | 293° |
| 2026-04-29 08:19 | -23.69054 | 144.55786 | 28169 ft | 482 kts | 293° |
| 2026-04-29 08:20 | -23.66172 | 144.49181 | 28159 ft | 482 kts | 293° |
| 2026-04-29 08:20 | -23.63306 | 144.42623 | 28166 ft | 482 kts | 293° |
| 2026-04-29 08:21 | -23.60421 | 144.36029 | 28166 ft | 482 kts | 293° |
| 2026-04-29 08:21 | -23.57532 | 144.29437 | 28167 ft | 482 kts | 294° |
| 2026-04-29 08:22 | -23.54643 | 144.22851 | 28158 ft | 481 kts | 294° |
| 2026-04-29 08:22 | -23.51752 | 144.16273 | 28154 ft | 481 kts | 294° |
| 2026-04-29 08:23 | -23.48881 | 144.09748 | 28171 ft | 481 kts | 294° |
| 2026-04-29 08:23 | -23.45989 | 144.03184 | 28160 ft | 480 kts | 294° |
| 2026-04-29 08:24 | -23.43122 | 143.96687 | 28152 ft | 480 kts | 294° |
| 2026-04-29 08:24 | -23.40225 | 143.90131 | 28155 ft | 481 kts | 294° |
| 2026-04-29 08:25 | -23.37345 | 143.83622 | 28173 ft | 480 kts | 294° |
| 2026-04-29 08:25 | -23.34441 | 143.77067 | 28156 ft | 481 kts | 294° |
| 2026-04-29 08:26 | -23.31535 | 143.70518 | 28153 ft | 481 kts | 294° |
| 2026-04-29 08:26 | -23.28627 | 143.63973 | 28169 ft | 480 kts | 294° |
| 2026-04-29 08:27 | -23.25739 | 143.57480 | 28165 ft | 480 kts | 294° |
| 2026-04-29 08:27 | -23.22829 | 143.50948 | 28148 ft | 480 kts | 294° |
| 2026-04-29 08:28 | -23.19917 | 143.44422 | 28163 ft | 479 kts | 294° |
| 2026-04-29 08:28 | -23.17008 | 143.37909 | 28162 ft | 479 kts | 294° |
| 2026-04-29 08:29 | -23.14117 | 143.31446 | 28140 ft | 479 kts | 294° |
| 2026-04-29 08:29 | -23.11207 | 143.24947 | 28151 ft | 478 kts | 293° |
| 2026-04-29 08:30 | -23.07333 | 143.16311 | 28151 ft | 477 kts | 294° |
| 2026-04-29 08:31 | -23.03934 | 143.08745 | 28148 ft | 477 kts | 294° |
| 2026-04-29 08:31 | -23.01043 | 143.02318 | 28152 ft | 477 kts | 294° |
| 2026-04-29 08:32 | -22.98103 | 142.95956 | 28141 ft | 477 kts | 295° |
| 2026-04-29 08:32 | -22.95495 | 142.90681 | 28151 ft | 477 kts | 296° |
| 2026-04-29 08:33 | -22.92337 | 142.84359 | 28148 ft | 476 kts | 296° |
| 2026-04-29 08:33 | -22.88694 | 142.77005 | 28146 ft | 476 kts | 295° |
| 2026-04-29 08:34 | -22.85573 | 142.70675 | 28142 ft | 476 kts | 295° |
| 2026-04-29 08:34 | -22.82982 | 142.65419 | 28137 ft | 476 kts | 295° |
| 2026-04-29 08:35 | -22.79862 | 142.59100 | 28136 ft | 475 kts | 295° |
| 2026-04-29 08:35 | -22.76236 | 142.51766 | 28135 ft | 475 kts | 295° |
| 2026-04-29 08:36 | -22.73114 | 142.45462 | 28134 ft | 475 kts | 295° |
| 2026-04-29 08:36 | -22.70518 | 142.40228 | 28140 ft | 475 kts | 295° |
| 2026-04-29 08:37 | -22.67393 | 142.33932 | 28139 ft | 474 kts | 296° |
| 2026-04-29 08:37 | -22.64266 | 142.27640 | 28130 ft | 474 kts | 296° |
| 2026-04-29 08:38 | -22.60632 | 142.20337 | 28125 ft | 474 kts | 296° |
| 2026-04-29 08:38 | -22.58034 | 142.15124 | 28140 ft | 473 kts | 296° |
| 2026-04-29 08:39 | -22.54907 | 142.08856 | 28135 ft | 473 kts | 296° |
| 2026-04-29 08:39 | -22.51781 | 142.02595 | 28122 ft | 473 kts | 296° |
| 2026-04-29 08:40 | -22.48681 | 141.96397 | 28124 ft | 472 kts | 296° |
| 2026-04-29 08:40 | -22.45555 | 141.90152 | 28126 ft | 472 kts | 296° |
| 2026-04-29 08:41 | -22.42445 | 141.83950 | 28126 ft | 472 kts | 296° |
| 2026-04-29 08:41 | -22.39316 | 141.77713 | 28122 ft | 472 kts | 296° |
| 2026-04-29 08:42 | -22.36184 | 141.71480 | 28121 ft | 472 kts | 296° |
| 2026-04-29 08:42 | -22.33049 | 141.65248 | 28123 ft | 472 kts | 296° |
| 2026-04-29 08:43 | -22.29912 | 141.59022 | 28122 ft | 472 kts | 296° |
| 2026-04-29 08:43 | -22.26794 | 141.52838 | 28119 ft | 472 kts | 296° |
| 2026-04-29 08:44 | -22.23650 | 141.46612 | 28116 ft | 472 kts | 296° |
| 2026-04-29 08:44 | -22.20505 | 141.40391 | 28120 ft | 472 kts | 296° |
| 2026-04-29 08:45 | -22.17357 | 141.34170 | 28115 ft | 472 kts | 296° |
| 2026-04-29 08:45 | -22.14227 | 141.27993 | 28101 ft | 472 kts | 296° |
| 2026-04-29 08:46 | -22.11076 | 141.21782 | 28098 ft | 472 kts | 296° |
| 2026-04-29 08:46 | -22.07921 | 141.15569 | 28099 ft | 472 kts | 296° |
| 2026-04-29 08:47 | -22.04763 | 141.09358 | 28099 ft | 472 kts | 296° |
| 2026-04-29 08:47 | -22.01606 | 141.03154 | 28098 ft | 472 kts | 296° |
| 2026-04-29 08:48 | -21.98523 | 140.97064 | 28094 ft | 472 kts | 296° |
| 2026-04-29 08:48 | -21.95455 | 140.90815 | 28097 ft | 472 kts | 295° |
| 2026-04-29 08:49 | -21.92400 | 140.84563 | 28098 ft | 472 kts | 295° |
| 2026-04-29 08:49 | -21.89336 | 140.78321 | 28103 ft | 472 kts | 296° |
| 2026-04-29 08:50 | -21.86262 | 140.72081 | 28096 ft | 472 kts | 296° |
| 2026-04-29 08:50 | -21.83207 | 140.65892 | 28100 ft | 472 kts | 296° |
| 2026-04-29 08:51 | -21.80127 | 140.59659 | 28100 ft | 471 kts | 296° |
| 2026-04-29 08:51 | -21.77046 | 140.53433 | 28099 ft | 471 kts | 296° |
| 2026-04-29 08:52 | -21.73963 | 140.47208 | 28094 ft | 471 kts | 296° |
| 2026-04-29 08:52 | -21.70899 | 140.41028 | 28092 ft | 471 kts | 296° |
| 2026-04-29 08:53 | -21.67812 | 140.34809 | 28092 ft | 471 kts | 296° |
| 2026-04-29 08:53 | -21.64725 | 140.28598 | 28092 ft | 471 kts | 296° |
| 2026-04-29 08:54 | -21.61635 | 140.22389 | 28094 ft | 471 kts | 296° |
| 2026-04-29 08:54 | -21.58565 | 140.16226 | 28091 ft | 471 kts | 296° |
| 2026-04-29 08:55 | -21.55473 | 140.10027 | 28088 ft | 471 kts | 296° |
| 2026-04-29 08:55 | -21.52377 | 140.03827 | 28086 ft | 471 kts | 296° |
| 2026-04-29 08:56 | -21.49317 | 139.97707 | 28090 ft | 471 kts | 296° |
| 2026-04-29 08:56 | -21.46237 | 139.91553 | 28089 ft | 471 kts | 296° |
| 2026-04-29 08:57 | -21.43135 | 139.85362 | 28083 ft | 471 kts | 296° |
| 2026-04-29 08:57 | -21.40029 | 139.79172 | 28097 ft | 471 kts | 296° |
| 2026-04-29 08:58 | -21.36920 | 139.72980 | 28084 ft | 471 kts | 296° |
| 2026-04-29 08:58 | -21.33830 | 139.66836 | 28099 ft | 471 kts | 296° |
| 2026-04-29 08:59 | -21.30717 | 139.60652 | 28080 ft | 471 kts | 296° |
| 2026-04-29 08:59 | -21.27603 | 139.54472 | 28083 ft | 471 kts | 296° |
| 2026-04-29 09:00 | -21.24484 | 139.48292 | 28090 ft | 471 kts | 296° |
| 2026-04-29 09:00 | -21.21363 | 139.42113 | 28085 ft | 471 kts | 296° |
| 2026-04-29 09:01 | -21.18237 | 139.35932 | 28086 ft | 472 kts | 296° |
| 2026-04-29 09:01 | -21.15132 | 139.29797 | 28082 ft | 472 kts | 296° |
| 2026-04-29 09:02 | -21.12004 | 139.23625 | 28078 ft | 472 kts | 296° |
| 2026-04-29 09:02 | -21.08872 | 139.17453 | 28080 ft | 472 kts | 296° |
| 2026-04-29 09:03 | -21.05759 | 139.11323 | 28076 ft | 472 kts | 296° |
| 2026-04-29 09:03 | -21.02624 | 139.05157 | 28073 ft | 472 kts | 296° |
| 2026-04-29 09:04 | -20.99476 | 138.99128 | 28077 ft | 473 kts | 300° |
| 2026-04-29 09:04 | -20.95727 | 138.93333 | 28078 ft | 474 kts | 302° |
| 2026-04-29 09:05 | -20.91930 | 138.87570 | 28070 ft | 474 kts | 302° |
| 2026-04-29 09:05 | -20.88175 | 138.81838 | 28071 ft | 474 kts | 302° |
| 2026-04-29 09:06 | -20.84400 | 138.76056 | 28061 ft | 474 kts | 302° |
| 2026-04-29 09:06 | -20.80629 | 138.70276 | 28067 ft | 474 kts | 302° |
| 2026-04-29 09:07 | -20.76855 | 138.64497 | 28064 ft | 474 kts | 302° |
| 2026-04-29 09:07 | -20.73102 | 138.58759 | 28067 ft | 474 kts | 302° |
| 2026-04-29 09:08 | -20.69321 | 138.52983 | 28065 ft | 475 kts | 302° |
| 2026-04-29 09:08 | -20.65535 | 138.47207 | 28059 ft | 475 kts | 302° |
| 2026-04-29 09:09 | -20.61749 | 138.41435 | 28053 ft | 475 kts | 302° |
| 2026-04-29 09:09 | -20.57984 | 138.35703 | 28060 ft | 475 kts | 302° |
| 2026-04-29 09:10 | -20.54193 | 138.29936 | 28057 ft | 475 kts | 302° |
| 2026-04-29 09:10 | -20.50397 | 138.24166 | 28057 ft | 475 kts | 302° |
| 2026-04-29 09:11 | -20.46599 | 138.18400 | 28056 ft | 475 kts | 302° |
| 2026-04-29 09:11 | -20.42799 | 138.12636 | 28052 ft | 475 kts | 302° |
| 2026-04-29 09:12 | -20.39025 | 138.06918 | 28047 ft | 475 kts | 302° |
| 2026-04-29 09:12 | -20.35226 | 138.01168 | 28047 ft | 474 kts | 302° |
| 2026-04-29 09:13 | -20.31483 | 137.95507 | 28051 ft | 474 kts | 302° |
| 2026-04-29 09:13 | -20.27689 | 137.89775 | 28053 ft | 474 kts | 302° |
| 2026-04-29 09:14 | -20.23915 | 137.84079 | 28044 ft | 474 kts | 302° |
| 2026-04-29 09:14 | -20.20116 | 137.78350 | 28041 ft | 474 kts | 302° |
| 2026-04-29 09:15 | -20.16313 | 137.72622 | 28050 ft | 474 kts | 302° |
| 2026-04-29 09:15 | -20.12506 | 137.66893 | 28050 ft | 474 kts | 302° |
| 2026-04-29 09:16 | -20.08721 | 137.61202 | 28050 ft | 474 kts | 302° |
| 2026-04-29 09:16 | -20.04908 | 137.55475 | 28050 ft | 474 kts | 302° |
| 2026-04-29 09:17 | -20.01093 | 137.49751 | 28046 ft | 474 kts | 302° |
| 2026-04-29 09:17 | -19.97282 | 137.44038 | 28048 ft | 474 kts | 302° |
| 2026-04-29 09:18 | -19.93465 | 137.38322 | 28038 ft | 474 kts | 302° |
| 2026-04-29 09:18 | -19.89677 | 137.32654 | 28044 ft | 473 kts | 302° |
| 2026-04-29 09:19 | -19.85865 | 137.26956 | 28043 ft | 473 kts | 303° |
| 2026-04-29 09:19 | -19.82055 | 137.21266 | 28043 ft | 473 kts | 303° |
| 2026-04-29 09:20 | -19.78243 | 137.15578 | 28042 ft | 473 kts | 303° |
| 2026-04-29 09:20 | -19.74455 | 137.09932 | 28040 ft | 473 kts | 303° |
| 2026-04-29 09:21 | -19.70637 | 137.04248 | 28042 ft | 473 kts | 303° |
| 2026-04-29 09:21 | -19.66863 | 136.98632 | 28041 ft | 473 kts | 303° |
| 2026-04-29 09:22 | -19.63041 | 136.92951 | 28043 ft | 473 kts | 303° |
| 2026-04-29 09:22 | -19.59218 | 136.87275 | 28041 ft | 473 kts | 303° |
| 2026-04-29 09:23 | -19.55418 | 136.81637 | 28041 ft | 473 kts | 303° |
| 2026-04-29 09:23 | -19.51591 | 136.75965 | 28031 ft | 473 kts | 303° |
| 2026-04-29 09:24 | -19.47762 | 136.70295 | 28036 ft | 473 kts | 303° |
| 2026-04-29 09:24 | -19.43934 | 136.64633 | 28038 ft | 473 kts | 303° |
| 2026-04-29 09:25 | -19.40132 | 136.59012 | 28038 ft | 472 kts | 303° |
| 2026-04-29 09:25 | -19.36301 | 136.53356 | 28038 ft | 472 kts | 303° |
| 2026-04-29 09:26 | -19.32470 | 136.47704 | 28035 ft | 472 kts | 303° |
| 2026-04-29 09:26 | -19.28637 | 136.42054 | 28035 ft | 472 kts | 303° |
| 2026-04-29 09:27 | -19.24801 | 136.36405 | 28031 ft | 472 kts | 303° |
| 2026-04-29 09:27 | -19.20991 | 136.30799 | 28035 ft | 472 kts | 303° |
| 2026-04-29 09:28 | -19.17151 | 136.25154 | 28031 ft | 473 kts | 303° |
| 2026-04-29 09:28 | -19.13308 | 136.19510 | 28034 ft | 473 kts | 303° |
| 2026-04-29 09:29 | -19.09462 | 136.13866 | 28032 ft | 473 kts | 303° |
| 2026-04-29 09:29 | -19.03719 | 136.05447 | 28024 ft | 473 kts | 303° |
| 2026-04-29 09:30 | -18.99972 | 135.99842 | 28029 ft | 471 kts | 300° |
| 2026-04-29 09:30 | -18.96870 | 135.93779 | 28031 ft | 469 kts | 295° |
| 2026-04-29 09:31 | -18.93910 | 135.87683 | 28030 ft | 469 kts | 295° |
| 2026-04-29 09:31 | -18.90908 | 135.81556 | 28022 ft | 470 kts | 295° |
| 2026-04-29 09:32 | -18.87891 | 135.75436 | 28018 ft | 470 kts | 295° |
| 2026-04-29 09:32 | -18.84865 | 135.69314 | 28024 ft | 470 kts | 295° |
| 2026-04-29 09:33 | -18.81836 | 135.63192 | 28022 ft | 471 kts | 295° |
| 2026-04-29 09:33 | -18.78827 | 135.57115 | 28017 ft | 471 kts | 295° |
| 2026-04-29 09:34 | -18.75793 | 135.50992 | 28017 ft | 471 kts | 295° |
| 2026-04-29 09:34 | -18.72758 | 135.44876 | 28015 ft | 471 kts | 295° |
| 2026-04-29 09:35 | -18.69741 | 135.38800 | 28017 ft | 471 kts | 295° |
| 2026-04-29 09:35 | -18.66701 | 135.32685 | 28012 ft | 471 kts | 295° |
| 2026-04-29 09:36 | -18.63660 | 135.26572 | 28015 ft | 471 kts | 295° |
| 2026-04-29 09:36 | -18.60617 | 135.20462 | 28014 ft | 471 kts | 295° |
| 2026-04-29 09:37 | -18.57592 | 135.14395 | 28014 ft | 471 kts | 295° |
| 2026-04-29 09:37 | -18.54544 | 135.08288 | 28013 ft | 471 kts | 295° |
| 2026-04-29 09:38 | -18.51492 | 135.02179 | 28014 ft | 471 kts | 295° |
| 2026-04-29 09:38 | -18.48475 | 134.96147 | 28008 ft | 471 kts | 295° |
| 2026-04-29 09:39 | -18.45421 | 134.90046 | 28014 ft | 471 kts | 295° |
| 2026-04-29 09:39 | -18.42381 | 134.83979 | 28012 ft | 472 kts | 295° |
| 2026-04-29 09:40 | -18.39317 | 134.77869 | 28012 ft | 472 kts | 296° |
| 2026-04-29 09:40 | -18.36248 | 134.71757 | 28014 ft | 472 kts | 296° |
| 2026-04-29 09:41 | -18.33179 | 134.65651 | 28004 ft | 472 kts | 296° |
| 2026-04-29 09:41 | -18.30129 | 134.59587 | 28011 ft | 472 kts | 296° |
| 2026-04-29 09:42 | -18.27059 | 134.53490 | 28012 ft | 472 kts | 296° |
| 2026-04-29 09:42 | -18.23986 | 134.47393 | 28015 ft | 472 kts | 296° |
| 2026-04-29 09:43 | -18.20930 | 134.41335 | 28019 ft | 472 kts | 296° |
| 2026-04-29 09:43 | -18.17848 | 134.35233 | 28015 ft | 473 kts | 296° |
| 2026-04-29 09:44 | -18.14761 | 134.29126 | 28016 ft | 473 kts | 296° |
| 2026-04-29 09:44 | -18.11673 | 134.23023 | 28013 ft | 473 kts | 296° |
| 2026-04-29 09:45 | -18.08582 | 134.16919 | 28016 ft | 473 kts | 296° |
| 2026-04-29 09:45 | -18.05510 | 134.10859 | 28014 ft | 473 kts | 296° |
| 2026-04-29 09:46 | -18.02413 | 134.04755 | 28012 ft | 473 kts | 296° |
| 2026-04-29 09:46 | -17.99371 | 133.98758 | 28017 ft | 473 kts | 295° |
| 2026-04-29 09:47 | -17.96339 | 133.92635 | 28014 ft | 472 kts | 295° |
| 2026-04-29 09:47 | -17.93352 | 133.86544 | 28016 ft | 472 kts | 295° |
| 2026-04-29 09:48 | -17.90336 | 133.80412 | 28015 ft | 472 kts | 295° |
| 2026-04-29 09:48 | -17.87315 | 133.74291 | 28009 ft | 472 kts | 295° |
| 2026-04-29 09:49 | -17.84289 | 133.68172 | 28015 ft | 472 kts | 295° |
| 2026-04-29 09:49 | -17.81281 | 133.62096 | 28022 ft | 472 kts | 295° |
| 2026-04-29 09:50 | -17.78248 | 133.55974 | 28013 ft | 473 kts | 295° |
| 2026-04-29 09:50 | -17.75211 | 133.49849 | 28014 ft | 473 kts | 295° |
| 2026-04-29 09:51 | -17.72173 | 133.43729 | 28015 ft | 473 kts | 295° |
| 2026-04-29 09:51 | -17.69155 | 133.37655 | 28015 ft | 473 kts | 295° |
| 2026-04-29 09:52 | -17.66115 | 133.31543 | 28012 ft | 473 kts | 295° |
| 2026-04-29 09:52 | -17.63072 | 133.25430 | 28014 ft | 473 kts | 295° |
| 2026-04-29 09:53 | -17.60026 | 133.19316 | 28014 ft | 473 kts | 295° |
| 2026-04-29 09:53 | -17.56996 | 133.13241 | 28020 ft | 473 kts | 295° |
| 2026-04-29 09:54 | -17.55472 | 133.10186 | 27999 ft | 473 kts | 295° |
| 2026-04-29 09:54 | -17.53947 | 133.07134 | 28010 ft | 473 kts | 295° |
| 2026-04-29 09:54 | -17.50894 | 133.01024 | 28011 ft | 473 kts | 295° |
| 2026-04-29 09:55 | -17.47874 | 132.94985 | 28011 ft | 473 kts | 295° |
| 2026-04-29 09:55 | -17.44817 | 132.88879 | 28012 ft | 473 kts | 295° |
| 2026-04-29 09:56 | -17.41782 | 132.82823 | 28018 ft | 473 kts | 295° |
| 2026-04-29 09:56 | -17.38722 | 132.76722 | 28012 ft | 473 kts | 295° |
| 2026-04-29 09:57 | -17.35661 | 132.70626 | 28008 ft | 473 kts | 295° |
| 2026-04-29 09:57 | -17.32602 | 132.64539 | 28007 ft | 472 kts | 295° |
| 2026-04-29 09:58 | -17.29565 | 132.58499 | 28023 ft | 472 kts | 295° |
| 2026-04-29 09:58 | -17.26505 | 132.52421 | 28024 ft | 472 kts | 295° |
| 2026-04-29 09:59 | -17.23439 | 132.46337 | 28020 ft | 473 kts | 295° |
| 2026-04-29 09:59 | -17.21905 | 132.43295 | 27998 ft | 473 kts | 295° |
| 2026-04-29 09:59 | -17.20373 | 132.40258 | 28016 ft | 473 kts | 296° |
| 2026-04-29 10:00 | -17.17303 | 132.34177 | 28013 ft | 473 kts | 296° |
| 2026-04-29 10:00 | -17.14251 | 132.28137 | 28012 ft | 473 kts | 296° |
| 2026-04-29 10:01 | -17.11177 | 132.22059 | 28018 ft | 473 kts | 296° |
| 2026-04-29 10:01 | -17.09640 | 132.19022 | 27998 ft | 473 kts | 296° |
| 2026-04-29 10:01 | -17.08101 | 132.15982 | 28019 ft | 473 kts | 296° |
| 2026-04-29 10:02 | -17.05021 | 132.09903 | 27995 ft | 474 kts | 296° |
| 2026-04-29 10:02 | -17.01959 | 132.03863 | 28010 ft | 473 kts | 296° |